Select your language:
24 hrs Sittard   Hier könnte ihre Werbung stehen!  
  年代別階級:   国:   平均速度:   年代別カテゴリー:   
開催日: 17.01.2026 Send Link
大会名: 3° El Valle Ultra 50K (PAN) この大会の詳細。
距離: 50km トレイルレース この大会の歴代記録.
完走者: 112 (84 男子, 28 女子) 複数回完走者.
ランキング対象: いいえ
情報提供元: リンク (当時の情報提供元。)
記載者: Chang, Wenhui     02.05.2026 18:23
 
112検索結果 
順位 記録 姓, 名 所属 国籍 生年 男/女 男女別順位 年代別階級 年代別順位 平均速度 km/h 年齢補正済記録
1 5:21:11 時間   Bianchi, Gabriel   GUA  1997 男子 1 M23  1 9.340 5:21:11 時間
2 5:47:13 時間   do Nascimento Ferreira Junior, Ademar   BRA  1975 男子 2 M50  1 8.640 5:09:48 時間
3 6:02:07 時間   Rivera Alape, Johan Sebastian   COL  1998 男子 3 M23  2 8.285 6:02:07 時間
4 6:08:39 時間   Guezou, Bastien   FRA  1988 男子 4 M35  1 8.138 6:03:52 時間
4 6:08:39 時間   Gomez, Paul   ECU  1988 男子 4 M35  1 8.138 6:03:52 時間
6 6:21:48 時間   Alvarado, Gabriel   PAN  2000 男子 6 M23  3 7.858 6:21:48 時間
7 6:46:42 時間   Bontemps, Damien   FRA  1986 男子 7 M35  3 7.376 6:37:02 時間
8 6:49:33 時間   Arias Arias, Cesar Augusto   ECU  2003 男子 8 MU23  1 7.325 6:49:33 時間
9 6:51:17 時間   Rodriguez Reyes, Isaias   PAN  1996 男子 9 M23  4 7.294 6:51:17 時間
10 6:54:26 時間   Martinez Castano, Leidy Johana   COL  1985 女子 1 W40  1 7.239 6:44:35 時間
11 6:58:37 時間   Torres, Maxwell   COL  2002 男子 10 M23  5 7.166 6:58:37 時間
12 7:13:47 時間   Vega, Gerardo   PAN  1992 男子 11 M23  6 6.916 7:13:16 時間
13 7:16:34 時間   Ramos, Justo   PAN  1994 男子 12 M23  7 6.872 7:16:34 時間
14 7:18:08 時間   Quesada Guerrero, Juan Pablo   CRC    男子 13 #NA    6.847 7:18:08 時間
15 7:19:42 時間   Urena Rojas, Roger   PAN  1985 男子 14 M40  1 6.823 7:06:20 時間
16 7:26:32 時間   Nunez, Ramses   PAN  1992 男子 15 M23  8 6.718 7:26:00 時間
17 7:29:08 時間   Mandarakas, Chemi   PAN  1972 男子 16 M50  2 6.680 6:30:16 時間
18 7:33:06 時間   Chacon, Felix   PAN  1978 男子 17 M45  1 6.621 6:54:52 時間
19 7:34:01 時間   Costarangos, Monica   PAN  1993 女子 2 W23  1 6.608 7:33:59 時間
20 7:38:37 時間   Cordon, Mario   PAN  1985 男子 18 M40  2 6.541 7:24:41 時間
21 7:38:39 時間   Pomares, Crescencio   PAN  1993 男子 19 M23  9 6.541 7:38:34 時間
22 7:41:26 時間   Solano Mendez, Luis Felipe   COL  1983 男子 20 M40  3 6.501 7:20:27 時間
23 7:44:26 時間   Baldion, Carlos   COL  1994 男子 21 M23  10 6.459 7:44:26 時間
24 7:45:07 時間   Correa, Carlos   VEN  1990 男子 22 M35  4 6.450 7:42:34 時間
25 7:45:17 時間   Castillo, Franklin   PAN  1984 男子 23 M40  4 6.448 7:27:45 時間
26 7:55:52 時間   Mendoza, Carmen   PAN  1985 女子 3 W40  2 6.304 7:44:33 時間
27 7:59:08 時間   Montesdeoca, Jaime   ECU  1995 男子 24 M23  11 6.261 7:59:08 時間
28 8:00:29 時間   Gonzalez Macias, Alexander   PAN  1991 男子 25 M23  12 6.244 7:59:06 時間
29 8:00:42 時間   Mata, Cristina   PAN  1986 女子 4 W35  1 6.241 7:51:49 時間
30 8:04:55 時間   Patino Suasty, Oscar   PAN  1986 男子 26 M35  5 6.187 7:53:23 時間
31 8:07:21 時間   Batista, Manuel   PAN  1996 男子 27 M23  13 6.156 8:07:21 時間
32 8:12:55 時間   Ajcabul, Alejandro   GUA  2000 男子 28 M23  14 6.086 8:12:55 時間
33 8:16:17 時間   Mini, Constanza   ITA  1975 女子 5 W50  1 6.045 7:20:19 時間
34 8:16:20 時間   Lemma, Emmanuel   ARG  1983 男子 29 M40  5 6.044 7:53:46 時間
35 8:20:46 時間   Gutierrez, Fermin   PAN  1979 男子 30 M45  2 5.991 7:42:25 時間
36 8:25:56 時間   Aleman, Estefania   PAN  1988 女子 6 W35  2 5.930 8:20:59 時間
37 8:30:22 時間   Serrano Fernandez, Wendy   COL  1995 女子 7 W23  2 5.878 8:30:22 時間
38 8:30:36 時間   Caballero, Rodrigo   PAN  1993 男子 31 M23  15 5.875 8:30:30 時間
39 8:30:56 時間   Rodriguez Medrano, Jonathan   PAN  1987 男子 32 M35  6 5.872 8:21:45 時間
40 8:31:40 時間   Morales Mora, Yan Carlos   CRC    男子 33 #NA    5.863 8:31:40 時間
41 8:37:11 時間   Sanchez, Juan Luis   PAN    男子 34 #NA    5.801 8:37:11 時間
42 8:37:35 時間   Ratner, Camila   ARG  1995 女子 8 W23  3 5.796 8:37:35 時間
43 8:39:08 時間   Estribi, Giselle Paola   PAN  1986 女子 9 W35  3 5.779 8:29:32 時間
44 8:39:10 時間   Agrazal, Alberto   PAN  1991 男子 35 M23  16 5.778 8:37:40 時間
45 8:41:16 時間   Monge Mora, Sonia   CRC  1989 女子 10 W35  4 5.755 8:37:53 時間
46 8:44:52 時間   Diaz, Jorge   PAN  1975 男子 36 M50  3 5.716 7:48:18 時間
47 8:47:41 時間   Barria, Angel   PAN  1991 男子 37 M23  17 5.685 8:46:10 時間
48 8:49:15 時間   Cortes Santos, Ovidio   PAN  1976 男子 38 M45  3 5.668 7:56:20 時間
49 8:50:04 時間   Ortega, Carlos   PAN  1979 男子 39 M45  4 5.660 8:09:28 時間
50 8:50:45 時間   Gonzalez Batista, Pedro Valentin   PAN  1970 男子 40 M55  1 5.652 7:32:54 時間
51 8:51:05 時間   Gillespie, Jonathan   NZL  1981 男子 41 M40  6 5.649 8:18:39 時間
52 8:52:06 時間   Camargo Montero, Thelma   PAN  1979 女子 11 W45  1 5.638 8:14:55 時間
53 8:54:19 時間   Hernandez Rojas, Jenny   PAN  1987 女子 12 W35  5 5.615 8:46:57 時間
54 8:56:04 時間   Machado, Adrian   VEN  1990 男子 42 M35  7 5.596 8:53:08 時間
55 8:59:13 時間   Londono Salinas, Alexandra   PAN  1989 女子 13 W35  6 5.564 8:55:43 時間
56 9:00:16 時間   Escudero, Ivan   PAN  1976 男子 43 M45  5 5.553 8:06:15 時間
57 9:02:02 時間   Castellanos, Daniel   PAN  1987 男子 44 M35  8 5.535 8:52:17 時間
58 9:05:25 時間   Santana Ceballos, Victor Alejandro   VEN  1994 男子 45 M23  18 5.500 9:05:25 時間
59 9:06:16 時間   Salinas Pinto, Andrea Paz   CHI  1981 女子 14 W40  3 5.492 8:37:59 時間
60 9:07:10 時間   Barria, Jose   PAN  1976 男子 46 M45  6 5.483 8:12:27 時間
61 9:07:37 時間   Baker, Phillip   COL  1961 男子 47 M60  1 5.478 7:08:57 時間
62 9:11:13 時間   Gonzalez, Leython   PAN  1997 男子 48 M23  19 5.443 9:11:13 時間
63 9:11:55 時間   Alejandra, Llanos   COL  1987 女子 15 W35  7 5.436 9:04:19 時間
64 9:14:51 時間   Pitti Ortiz, Maximo   PAN  1977 男子 49 M45  7 5.407 8:23:42 時間
65 9:17:41 時間   Bennett, Irving   PAN  1961 男子 50 M60  2 5.379 7:16:51 時間
66 9:19:56 時間   Torrens Marin, Guillem   PAN  1980 男子 51 M45  8 5.358 8:41:22 時間
67 9:26:30 時間   Welling, Brandon   USA  1983 男子 52 M40  7 5.296 9:00:44 時間
68 9:27:29 時間   Rodriguez Rivas, Fidel   PAN  1981 男子 53 M40  8 5.286 8:52:49 時間
69 9:27:59 時間   Ramirez, Douglas   VEN  1981 男子 54 M40  9 5.282 8:53:17 時間
70 9:33:22 時間   Quintero, Danny   PAN  1973 男子 55 M50  4 5.232 8:22:41 時間
71 9:33:56 時間   de la Cruz, Ezequiel Enrique   PAN  1986 男子 56 M35  9 5.227 9:20:17 時間
72 9:34:43 時間   Aparicio, Ovett   PAN  1992 男子 57 M23  20 5.220 9:34:02 時間
73 9:36:10 時間   Brown Ortega, Gil Ernesto   PAN  1994 男子 58 M23  21 5.207 9:36:10 時間
74 9:36:47 時間   Corrales Gonzalez, Dionisio   PAN  1970 男子 59 M55  2 5.201 8:12:11 時間
75 9:37:12 時間   Viljoen, Adam   GBR  1972 男子 60 M50  5 5.198 8:21:32 時間
76 9:39:17 時間   Alvarado, Rocio   GUA  1980 女子 16 W45  2 5.179 9:04:15 時間
77 9:40:32 時間   Espinosa, Ana Lia   PAN  1978 女子 17 W45  3 5.168 8:54:06 時間
78 9:44:53 時間   Grajales, Evelyn Angelin   PAN    女子 18 #NA    5.129 9:44:53 時間
79 9:48:11 時間   Zhang, Wenke   PAN  1987 男子 61 M35  10 5.100 9:37:36 時間
80 9:48:43 時間   Davis, Frank   PAN  1992 男子 62 M23  22 5.096 9:48:01 時間
81 9:53:34 時間   Terreros, Leyda   PAN  1987 女子 19 W35  8 5.054 9:45:23 時間
82 9:54:47 時間   Munoz, Andres   PAN  1975 男子 63 M50  6 5.044 8:50:40 時間
83 9:56:19 時間   Rodriguez, Jimmy   COL  1981 男子 64 M40  10 5.031 9:19:53 時間
84 9:57:22 時間   Rodriguez, Ormelis   PAN  1972 男子 65 M50  7 5.022 8:39:04 時間
85 9:58:10 時間   Rodriguez, Jose Luis   PAN  1993 男子 66 M23  23 5.015 9:58:03 時間
86 9:59:04 時間   Carrizo, Jose   PAN  2004 男子 67 MU23  2 5.008 9:59:04 時間
87 9:59:21 時間   Delgado, Jose   VEN  1987 男子 68 M35  11 5.005 9:48:34 時間
88 10:02:59 時間   Machado Zamora, Juan Carlos   COL  1985 男子 69 M40  11 4.975 9:44:40 時間
89 10:07:32 時間   de la Rosa Lasa, David Enrique   PAN  1999 男子 70 M23  24 4.938 10:07:32 時間
90 10:09:23 時間   Rodriguez, Maycol   PAN  1997 男子 71 M23  25 4.923 10:09:23 時間
91 10:09:40 時間   Cabassa, Pia Gabriela   PAN  1993 女子 20 W23  4 4.921 10:09:37 時間
92 10:09:42 時間   Rodriguez Zurita, Jaselski Janneth   PAN  1989 女子 21 W35  9 4.920 10:05:45 時間
93 10:10:09 時間   Lang, Katrina   USA  1990 女子 22 W35  10 4.917 10:07:47 時間
94 10:16:01 時間   Souhami, Amandine   FRA  1987 女子 23 W35  11 4.870 10:07:31 時間
95 10:17:11 時間   Callejas, Gabriel   PAN  1996 男子 72 M23  26 4.861 10:17:11 時間
96 10:17:26 時間   Orozco Arias, Sebastian   ECU  1999 男子 73 M23  27 4.859 10:17:26 時間
97 10:18:12 時間   Valdes, Ivan   PAN  1987 男子 74 M35  12 4.853 10:07:05 時間
98 10:25:02 時間   Munoz Prados, Yaslin Michell   PAN  1990 女子 24 W35  12 4.800 10:22:36 時間
99 10:26:32 時間   Galeano, Llansy   PAN    女子 25 #NA    4.788 10:26:32 時間
100 10:28:54 時間   Tejeira de Bennett, Isabel   PAN  1968 女子 26 W55  1 4.770 8:29:17 時間
101 10:31:06 時間   Lao, Jose   PAN  1978 男子 75 M45  9 4.754 9:37:51 時間
102 10:32:43 時間   Xiao, Kaitao   CHN  1992 男子 76 M23  28 4.741 10:31:58 時間
103 10:34:02 時間   Montecer, Manuel   PAN  1971 男子 77 M50  8 4.732 9:05:58 時間
104 10:34:14 時間   Cherigo, Katherine   PAN  1995 女子 27 W23  5 4.730 10:34:14 時間
104 10:34:14 時間   Carcamo, Jonathan   PAN  2000 男子 78 M23  29 4.730 10:34:14 時間
106 10:36:37 時間   Aizprua, Jocelyn   PAN  1989 女子 28 W35  13 4.712 10:32:29 時間
107 10:39:14 時間   Monterroso Sapon, Jose David   GUA    男子 79 #NA    4.693 10:39:14 時間
108 10:51:49 時間   Palma Tello, Benhur Alejandro   PAN    男子 80 #NA    4.603 10:51:49 時間
109 10:54:33 時間   Torres Cerrato, Omar   HON  1981 男子 81 M40  12 4.583 10:14:34 時間
110 10:54:40 時間   Malek, Enrique   PAN  1985 男子 82 M40  13 4.582 10:34:46 時間
111 10:56:31 時間   Dominguez, Videl   PAN  1994 男子 83 M23  30 4.570 10:56:31 時間
112 10:56:58 時間   de Leon Aguilar, Mario   PAN  1990 男子 84 M35  13 4.566 10:53:22 時間